TimeEDT,TemperatureF,Dew PointF,Humidity,Sea Level PressureIn,VisibilityMPH,Wind Direction,Wind SpeedMPH,Gust SpeedMPH,PrecipitationIn,Events,Conditions,WindDirDegrees,DateUTC
12:53 AM,55.4,51.8,88,30.11,10.0,Calm,Calm,-,N/A,,Clear,0,2011-10-21 04:53:00
1:53 AM,55.0,52.0,89,30.10,10.0,Calm,Calm,-,N/A,,Clear,0,2011-10-21 05:53:00
2:53 AM,54.0,51.1,90,30.10,10.0,Calm,Calm,-,N/A,,Clear,0,2011-10-21 06:53:00
3:53 AM,53.1,50.0,89,30.10,10.0,Calm,Calm,-,N/A,,Clear,0,2011-10-21 07:53:00
4:53 AM,53.6,51.8,94,30.10,10.0,Calm,Calm,-,N/A,,Clear,0,2011-10-21 08:53:00
5:53 AM,53.1,50.0,89,30.11,10.0,NNW,4.6,-,N/A,,Clear,330,2011-10-21 09:53:00
6:53 AM,53.1,50.0,89,30.12,10.0,NW,4.6,-,N/A,,Clear,310,2011-10-21 10:53:00
7:53 AM,55.4,50.0,82,30.13,10.0,NW,5.8,-,N/A,,Clear,310,2011-10-21 11:53:00
8:53 AM,60.1,48.9,67,30.14,10.0,NW,4.6,-,N/A,,Clear,310,2011-10-21 12:53:00
9:53 AM,64.9,50.0,58,30.15,10.0,NNW,6.9,-,N/A,,Clear,330,2011-10-21 13:53:00
10:53 AM,68.0,48.9,50,30.16,10.0,NNW,13.8,19.6,N/A,,Clear,330,2011-10-21 14:53:00
11:53 AM,71.1,50.0,47,30.14,10.0,North,15.0,-,N/A,,Clear,350,2011-10-21 15:53:00
12:53 PM,71.1,50.0,47,30.12,10.0,NNW,16.1,-,N/A,,Clear,340,2011-10-21 16:53:00
1:53 PM,72.0,48.9,44,30.08,10.0,North,13.8,21.9,N/A,,Clear,360,2011-10-21 17:53:00
2:53 PM,72.0,48.9,44,30.06,10.0,North,15.0,25.3,N/A,,Clear,350,2011-10-21 18:53:00
3:53 PM,72.0,48.9,44,30.05,10.0,NNE,9.2,17.3,N/A,,Clear,20,2011-10-21 19:53:00
4:53 PM,71.1,50.0,47,30.05,10.0,NNE,8.1,-,N/A,,Clear,20,2011-10-21 20:53:00
5:53 PM,70.0,50.0,49,30.06,10.0,NNE,6.9,-,N/A,,Clear,30,2011-10-21 21:53:00
6:53 PM,64.9,51.1,61,30.06,10.0,North,4.6,-,N/A,,Clear,360,2011-10-21 22:53:00
7:53 PM,60.1,53.1,78,30.06,10.0,North,4.6,-,N/A,,Clear,360,2011-10-21 23:53:00
8:53 PM,60.1,52.0,75,30.07,10.0,NNW,4.6,-,N/A,,Clear,330,2011-10-22 00:53:00
9:53 PM,60.1,52.0,75,30.07,10.0,NW,5.8,-,N/A,,Clear,320,2011-10-22 01:53:00
10:53 PM,60.1,51.1,72,30.07,10.0,NW,6.9,-,N/A,,Clear,320,2011-10-22 02:53:00
11:53 PM,60.1,51.1,72,30.06,10.0,NW,6.9,-,N/A,,Clear,310,2011-10-22 03:53:00